sensor_id;sensor_type;location;lat;lon;timestamp;temperature;humidity
49222;DHT22;35047;37.588;-122.048;2022-08-02T00:02:01;35.70;40.40
49222;DHT22;35047;37.588;-122.048;2022-08-02T00:04:30;35.80;39.50
49222;DHT22;35047;37.588;-122.048;2022-08-02T00:06:57;36.00;39.80
49222;DHT22;35047;37.588;-122.048;2022-08-02T00:09:25;36.30;39.60
49222;DHT22;35047;37.588;-122.048;2022-08-02T00:11:51;36.50;38.20
49222;DHT22;35047;37.588;-122.048;2022-08-02T00:14:18;36.70;37.70
49222;DHT22;35047;37.588;-122.048;2022-08-02T00:16:45;37.00;37.40
49222;DHT22;35047;37.588;-122.048;2022-08-02T00:19:11;37.10;35.60
49222;DHT22;35047;37.588;-122.048;2022-08-02T00:21:37;36.90;35.40
49222;DHT22;35047;37.588;-122.048;2022-08-02T00:24:04;36.80;35.80
49222;DHT22;35047;37.588;-122.048;2022-08-02T00:26:31;36.90;35.10
49222;DHT22;35047;37.588;-122.048;2022-08-02T00:28:57;37.00;34.80
49222;DHT22;35047;37.588;-122.048;2022-08-02T00:31:23;37.30;35.30
49222;DHT22;35047;37.588;-122.048;2022-08-02T00:33:53;37.30;34.90
49222;DHT22;35047;37.588;-122.048;2022-08-02T00:36:21;37.30;35.30
49222;DHT22;35047;37.588;-122.048;2022-08-02T00:38:48;37.20;37.20
49222;DHT22;35047;37.588;-122.048;2022-08-02T00:41:18;37.20;37.40
49222;DHT22;35047;37.588;-122.048;2022-08-02T00:43:46;37.20;37.60
49222;DHT22;35047;37.588;-122.048;2022-08-02T00:46:15;37.10;37.30
49222;DHT22;35047;37.588;-122.048;2022-08-02T00:48:42;36.80;38.00
49222;DHT22;35047;37.588;-122.048;2022-08-02T00:51:09;36.60;39.00
49222;DHT22;35047;37.588;-122.048;2022-08-02T00:53:36;36.40;39.90
49222;DHT22;35047;37.588;-122.048;2022-08-02T00:56:02;36.10;40.10
49222;DHT22;35047;37.588;-122.048;2022-08-02T00:58:29;35.60;40.40
49222;DHT22;35047;37.588;-122.048;2022-08-02T01:00:56;35.50;41.00
49222;DHT22;35047;37.588;-122.048;2022-08-02T01:03:25;35.30;41.50
49222;DHT22;35047;37.588;-122.048;2022-08-02T01:08:24;35.40;40.30
49222;DHT22;35047;37.588;-122.048;2022-08-02T01:10:51;35.60;41.50
49222;DHT22;35047;37.588;-122.048;2022-08-02T01:13:17;35.60;41.80
49222;DHT22;35047;37.588;-122.048;2022-08-02T01:15:49;35.30;41.90
49222;DHT22;35047;37.588;-122.048;2022-08-02T01:18:32;35.20;41.60
49222;DHT22;35047;37.588;-122.048;2022-08-02T01:21:08;35.20;40.60
49222;DHT22;35047;37.588;-122.048;2022-08-02T01:31:52;36.10;36.80
49222;DHT22;35047;37.588;-122.048;2022-08-02T01:34:48;36.20;35.40
49222;DHT22;35047;37.588;-122.048;2022-08-02T01:40:00;36.10;35.60
49222;DHT22;35047;37.588;-122.048;2022-08-02T01:42:28;36.20;35.30
49222;DHT22;35047;37.588;-122.048;2022-08-02T01:44:56;36.00;35.10
49222;DHT22;35047;37.588;-122.048;2022-08-02T01:47:30;35.70;35.40
49222;DHT22;35047;37.588;-122.048;2022-08-02T01:49:59;35.70;35.90
49222;DHT22;35047;37.588;-122.048;2022-08-02T01:52:29;35.60;36.00
49222;DHT22;35047;37.588;-122.048;2022-08-02T01:57:34;34.80;36.40
49222;DHT22;35047;37.588;-122.048;2022-08-02T02:00:03;34.40;37.00
49222;DHT22;35047;37.588;-122.048;2022-08-02T02:02:31;34.30;37.70
49222;DHT22;35047;37.588;-122.048;2022-08-02T02:04:59;34.10;37.80
49222;DHT22;35047;37.588;-122.048;2022-08-02T02:07:27;34.00;37.90
49222;DHT22;35047;37.588;-122.048;2022-08-02T02:09:56;34.00;38.30
49222;DHT22;35047;37.588;-122.048;2022-08-02T02:12:24;33.70;38.50
49222;DHT22;35047;37.588;-122.048;2022-08-02T02:14:52;33.40;39.00
49222;DHT22;35047;37.588;-122.048;2022-08-02T02:17:20;33.40;40.00
49222;DHT22;35047;37.588;-122.048;2022-08-02T02:19:48;33.30;38.90
49222;DHT22;35047;37.588;-122.048;2022-08-02T02:22:16;33.40;38.90
49222;DHT22;35047;37.588;-122.048;2022-08-02T02:24:42;33.40;38.80
49222;DHT22;35047;37.588;-122.048;2022-08-02T02:27:11;33.30;42.30
49222;DHT22;35047;37.588;-122.048;2022-08-02T02:29:43;33.00;45.10
49222;DHT22;35047;37.588;-122.048;2022-08-02T02:32:12;32.70;45.60
49222;DHT22;35047;37.588;-122.048;2022-08-02T02:34:42;32.60;46.60
49222;DHT22;35047;37.588;-122.048;2022-08-02T02:37:22;32.10;47.80
49222;DHT22;35047;37.588;-122.048;2022-08-02T02:39:51;31.90;48.40
49222;DHT22;35047;37.588;-122.048;2022-08-02T02:42:25;31.70;49.10
49222;DHT22;35047;37.588;-122.048;2022-08-02T02:44:53;31.50;49.30
49222;DHT22;35047;37.588;-122.048;2022-08-02T02:47:21;31.10;49.90
49222;DHT22;35047;37.588;-122.048;2022-08-02T02:49:48;31.10;50.20
49222;DHT22;35047;37.588;-122.048;2022-08-02T02:52:16;31.10;50.20
49222;DHT22;35047;37.588;-122.048;2022-08-02T02:54:47;31.00;50.50
49222;DHT22;35047;37.588;-122.048;2022-08-02T02:57:15;31.00;50.60
49222;DHT22;35047;37.588;-122.048;2022-08-02T02:59:43;30.90;51.00
49222;DHT22;35047;37.588;-122.048;2022-08-02T03:02:10;30.80;51.10
49222;DHT22;35047;37.588;-122.048;2022-08-02T03:04:42;30.60;51.70
49222;DHT22;35047;37.588;-122.048;2022-08-02T03:07:10;30.40;51.80
49222;DHT22;35047;37.588;-122.048;2022-08-02T03:09:36;30.40;52.50
49222;DHT22;35047;37.588;-122.048;2022-08-02T03:12:03;30.30;52.90
49222;DHT22;35047;37.588;-122.048;2022-08-02T03:14:31;30.30;52.70
49222;DHT22;35047;37.588;-122.048;2022-08-02T03:16:59;30.10;52.50
49222;DHT22;35047;37.588;-122.048;2022-08-02T03:19:26;30.00;52.80
49222;DHT22;35047;37.588;-122.048;2022-08-02T03:21:53;29.80;52.90
49222;DHT22;35047;37.588;-122.048;2022-08-02T03:24:20;29.60;53.10
49222;DHT22;35047;37.588;-122.048;2022-08-02T03:26:46;29.70;53.20
49222;DHT22;35047;37.588;-122.048;2022-08-02T03:29:13;29.90;52.40
49222;DHT22;35047;37.588;-122.048;2022-08-02T03:31:44;29.90;52.60
49222;DHT22;35047;37.588;-122.048;2022-08-02T03:34:12;29.80;52.60
49222;DHT22;35047;37.588;-122.048;2022-08-02T03:36:39;29.80;52.80
49222;DHT22;35047;37.588;-122.048;2022-08-02T03:39:08;29.80;53.00
49222;DHT22;35047;37.588;-122.048;2022-08-02T03:41:36;29.80;52.70
49222;DHT22;35047;37.588;-122.048;2022-08-02T03:44:04;29.80;52.90
49222;DHT22;35047;37.588;-122.048;2022-08-02T03:46:33;29.70;53.30
49222;DHT22;35047;37.588;-122.048;2022-08-02T03:49:01;29.60;54.00
49222;DHT22;35047;37.588;-122.048;2022-08-02T03:51:28;29.70;53.60
49222;DHT22;35047;37.588;-122.048;2022-08-02T03:53:55;29.70;53.50
49222;DHT22;35047;37.588;-122.048;2022-08-02T03:56:23;29.70;53.00
49222;DHT22;35047;37.588;-122.048;2022-08-02T03:59:05;29.70;53.10
49222;DHT22;35047;37.588;-122.048;2022-08-02T04:01:31;29.60;52.80
49222;DHT22;35047;37.588;-122.048;2022-08-02T04:03:59;29.50;53.70
49222;DHT22;35047;37.588;-122.048;2022-08-02T04:06:25;29.50;53.70
49222;DHT22;35047;37.588;-122.048;2022-08-02T04:08:52;29.60;53.30
49222;DHT22;35047;37.588;-122.048;2022-08-02T04:11:18;29.60;53.50
49222;DHT22;35047;37.588;-122.048;2022-08-02T04:14:03;29.60;53.40
49222;DHT22;35047;37.588;-122.048;2022-08-02T04:16:37;29.60;54.10
49222;DHT22;35047;37.588;-122.048;2022-08-02T04:19:07;29.60;54.20
49222;DHT22;35047;37.588;-122.048;2022-08-02T04:21:37;29.50;54.30
49222;DHT22;35047;37.588;-122.048;2022-08-02T04:24:08;29.50;54.70
49222;DHT22;35047;37.588;-122.048;2022-08-02T04:26:35;29.50;55.00
49222;DHT22;35047;37.588;-122.048;2022-08-02T04:29:03;29.40;54.80
49222;DHT22;35047;37.588;-122.048;2022-08-02T04:31:30;29.30;55.00
49222;DHT22;35047;37.588;-122.048;2022-08-02T04:33:58;29.20;55.40
49222;DHT22;35047;37.588;-122.048;2022-08-02T04:36:25;29.20;55.70
49222;DHT22;35047;37.588;-122.048;2022-08-02T04:38:53;29.30;55.70
49222;DHT22;35047;37.588;-122.048;2022-08-02T04:41:20;29.20;55.60
49222;DHT22;35047;37.588;-122.048;2022-08-02T04:43:46;29.20;55.60
49222;DHT22;35047;37.588;-122.048;2022-08-02T04:46:13;29.10;56.20
49222;DHT22;35047;37.588;-122.048;2022-08-02T04:48:40;29.00;56.30
49222;DHT22;35047;37.588;-122.048;2022-08-02T04:51:07;28.90;56.60
49222;DHT22;35047;37.588;-122.048;2022-08-02T04:53:33;28.90;56.50
49222;DHT22;35047;37.588;-122.048;2022-08-02T04:56:01;28.90;56.50
49222;DHT22;35047;37.588;-122.048;2022-08-02T04:58:28;28.90;56.50
49222;DHT22;35047;37.588;-122.048;2022-08-02T05:00:55;28.70;56.90
49222;DHT22;35047;37.588;-122.048;2022-08-02T05:03:21;28.70;57.10
49222;DHT22;35047;37.588;-122.048;2022-08-02T05:05:48;28.60;57.70
49222;DHT22;35047;37.588;-122.048;2022-08-02T05:08:15;28.50;57.70
49222;DHT22;35047;37.588;-122.048;2022-08-02T05:10:41;28.50;57.70
49222;DHT22;35047;37.588;-122.048;2022-08-02T05:13:08;28.50;57.60
49222;DHT22;35047;37.588;-122.048;2022-08-02T05:15:35;28.50;57.80
49222;DHT22;35047;37.588;-122.048;2022-08-02T05:18:02;28.20;57.70
49222;DHT22;35047;37.588;-122.048;2022-08-02T05:20:29;28.00;58.00
49222;DHT22;35047;37.588;-122.048;2022-08-02T05:22:57;27.80;58.50
49222;DHT22;35047;37.588;-122.048;2022-08-02T05:25:23;27.60;59.30
49222;DHT22;35047;37.588;-122.048;2022-08-02T05:27:51;27.50;59.70
49222;DHT22;35047;37.588;-122.048;2022-08-02T05:30:17;27.50;60.00
49222;DHT22;35047;37.588;-122.048;2022-08-02T05:32:47;27.40;60.60
49222;DHT22;35047;37.588;-122.048;2022-08-02T05:35:18;27.50;60.80
49222;DHT22;35047;37.588;-122.048;2022-08-02T05:37:45;27.30;61.10
49222;DHT22;35047;37.588;-122.048;2022-08-02T05:40:11;27.30;61.60
49222;DHT22;35047;37.588;-122.048;2022-08-02T05:42:38;27.20;62.20
49222;DHT22;35047;37.588;-122.048;2022-08-02T05:45:06;27.40;61.70
49222;DHT22;35047;37.588;-122.048;2022-08-02T05:47:34;27.50;61.40
49222;DHT22;35047;37.588;-122.048;2022-08-02T05:50:01;27.60;61.30
49222;DHT22;35047;37.588;-122.048;2022-08-02T05:52:48;27.60;60.90
49222;DHT22;35047;37.588;-122.048;2022-08-02T05:55:27;27.60;61.60
49222;DHT22;35047;37.588;-122.048;2022-08-02T06:01:02;27.60;61.90
49222;DHT22;35047;37.588;-122.048;2022-08-02T06:03:38;27.50;62.20
49222;DHT22;35047;37.588;-122.048;2022-08-02T06:06:08;27.50;62.60
49222;DHT22;35047;37.588;-122.048;2022-08-02T06:08:44;27.40;62.90
49222;DHT22;35047;37.588;-122.048;2022-08-02T06:11:21;27.40;63.10
49222;DHT22;35047;37.588;-122.048;2022-08-02T06:13:50;27.50;62.90
49222;DHT22;35047;37.588;-122.048;2022-08-02T06:16:18;27.50;62.90
49222;DHT22;35047;37.588;-122.048;2022-08-02T06:18:44;27.40;62.90
49222;DHT22;35047;37.588;-122.048;2022-08-02T06:21:13;27.40;63.10
49222;DHT22;35047;37.588;-122.048;2022-08-02T06:23:42;27.50;63.10
49222;DHT22;35047;37.588;-122.048;2022-08-02T06:26:10;27.50;62.90
49222;DHT22;35047;37.588;-122.048;2022-08-02T06:28:38;27.50;63.00
49222;DHT22;35047;37.588;-122.048;2022-08-02T06:31:05;27.40;62.90
49222;DHT22;35047;37.588;-122.048;2022-08-02T06:33:33;27.50;63.00
49222;DHT22;35047;37.588;-122.048;2022-08-02T06:38:41;27.40;63.00
49222;DHT22;35047;37.588;-122.048;2022-08-02T06:41:11;27.20;63.40
49222;DHT22;35047;37.588;-122.048;2022-08-02T06:44:02;27.20;63.60
49222;DHT22;35047;37.588;-122.048;2022-08-02T06:46:30;27.20;63.40
49222;DHT22;35047;37.588;-122.048;2022-08-02T06:48:57;27.10;63.60
49222;DHT22;35047;37.588;-122.048;2022-08-02T06:51:24;27.10;63.80
49222;DHT22;35047;37.588;-122.048;2022-08-02T06:53:52;27.10;63.50
49222;DHT22;35047;37.588;-122.048;2022-08-02T06:56:18;27.00;63.90
49222;DHT22;35047;37.588;-122.048;2022-08-02T06:58:45;27.00;63.90
49222;DHT22;35047;37.588;-122.048;2022-08-02T07:01:12;27.10;63.80
49222;DHT22;35047;37.588;-122.048;2022-08-02T07:03:39;27.00;63.60
49222;DHT22;35047;37.588;-122.048;2022-08-02T07:06:06;27.10;63.70
49222;DHT22;35047;37.588;-122.048;2022-08-02T07:08:34;27.00;63.60
49222;DHT22;35047;37.588;-122.048;2022-08-02T07:11:07;27.00;63.50
49222;DHT22;35047;37.588;-122.048;2022-08-02T07:13:35;27.00;63.30
49222;DHT22;35047;37.588;-122.048;2022-08-02T07:16:02;27.00;63.10
49222;DHT22;35047;37.588;-122.048;2022-08-02T07:18:29;27.00;63.00
49222;DHT22;35047;37.588;-122.048;2022-08-02T07:20:55;27.00;62.80
49222;DHT22;35047;37.588;-122.048;2022-08-02T07:23:22;26.90;62.70
49222;DHT22;35047;37.588;-122.048;2022-08-02T07:25:50;26.90;62.70
49222;DHT22;35047;37.588;-122.048;2022-08-02T07:28:16;26.90;62.60
49222;DHT22;35047;37.588;-122.048;2022-08-02T07:30:43;26.60;63.50
49222;DHT22;35047;37.588;-122.048;2022-08-02T07:33:10;26.70;63.40
49222;DHT22;35047;37.588;-122.048;2022-08-02T07:35:37;26.80;63.10
49222;DHT22;35047;37.588;-122.048;2022-08-02T07:38:05;26.70;62.90
49222;DHT22;35047;37.588;-122.048;2022-08-02T07:40:32;26.70;63.00
49222;DHT22;35047;37.588;-122.048;2022-08-02T07:42:59;26.40;63.20
49222;DHT22;35047;37.588;-122.048;2022-08-02T07:45:26;26.20;63.90
49222;DHT22;35047;37.588;-122.048;2022-08-02T07:47:54;26.30;63.80
49222;DHT22;35047;37.588;-122.048;2022-08-02T07:50:22;26.30;63.70
49222;DHT22;35047;37.588;-122.048;2022-08-02T07:52:48;26.40;63.70
49222;DHT22;35047;37.588;-122.048;2022-08-02T07:55:16;26.40;63.60
49222;DHT22;35047;37.588;-122.048;2022-08-02T07:57:43;26.20;63.40
49222;DHT22;35047;37.588;-122.048;2022-08-02T08:00:10;26.30;63.60
49222;DHT22;35047;37.588;-122.048;2022-08-02T08:02:37;26.30;63.20
49222;DHT22;35047;37.588;-122.048;2022-08-02T08:05:04;26.30;63.40
49222;DHT22;35047;37.588;-122.048;2022-08-02T08:07:32;26.30;63.20
49222;DHT22;35047;37.588;-122.048;2022-08-02T08:09:59;26.30;63.00
49222;DHT22;35047;37.588;-122.048;2022-08-02T08:12:26;26.30;62.70
49222;DHT22;35047;37.588;-122.048;2022-08-02T08:14:54;26.30;62.50
49222;DHT22;35047;37.588;-122.048;2022-08-02T08:17:21;26.30;62.30
49222;DHT22;35047;37.588;-122.048;2022-08-02T08:19:48;26.30;62.30
49222;DHT22;35047;37.588;-122.048;2022-08-02T08:22:15;26.30;62.10
49222;DHT22;35047;37.588;-122.048;2022-08-02T08:24:42;26.20;62.70
49222;DHT22;35047;37.588;-122.048;2022-08-02T08:27:08;26.20;62.20
49222;DHT22;35047;37.588;-122.048;2022-08-02T08:29:40;26.20;62.40
49222;DHT22;35047;37.588;-122.048;2022-08-02T08:32:07;26.20;62.50
49222;DHT22;35047;37.588;-122.048;2022-08-02T08:34:34;26.10;62.70
49222;DHT22;35047;37.588;-122.048;2022-08-02T08:37:01;26.20;63.60
49222;DHT22;35047;37.588;-122.048;2022-08-02T08:39:29;26.10;62.80
49222;DHT22;35047;37.588;-122.048;2022-08-02T08:41:57;26.00;63.00
49222;DHT22;35047;37.588;-122.048;2022-08-02T08:44:23;25.90;63.50
49222;DHT22;35047;37.588;-122.048;2022-08-02T08:46:53;25.90;63.90
49222;DHT22;35047;37.588;-122.048;2022-08-02T08:49:31;25.90;64.00
49222;DHT22;35047;37.588;-122.048;2022-08-02T08:52:03;25.90;63.70
49222;DHT22;35047;37.588;-122.048;2022-08-02T08:54:31;25.70;63.90
49222;DHT22;35047;37.588;-122.048;2022-08-02T08:56:58;25.70;64.00
49222;DHT22;35047;37.588;-122.048;2022-08-02T08:59:26;25.50;64.70
49222;DHT22;35047;37.588;-122.048;2022-08-02T09:01:52;25.30;65.30
49222;DHT22;35047;37.588;-122.048;2022-08-02T09:04:21;25.00;66.70
49222;DHT22;35047;37.588;-122.048;2022-08-02T09:06:48;25.20;66.20
49222;DHT22;35047;37.588;-122.048;2022-08-02T09:09:15;25.00;66.40
49222;DHT22;35047;37.588;-122.048;2022-08-02T09:11:42;25.00;66.90
49222;DHT22;35047;37.588;-122.048;2022-08-02T09:14:09;25.20;66.70
49222;DHT22;35047;37.588;-122.048;2022-08-02T09:19:21;25.20;66.60
49222;DHT22;35047;37.588;-122.048;2022-08-02T09:22:11;25.20;67.30
49222;DHT22;35047;37.588;-122.048;2022-08-02T09:24:44;25.30;66.60
49222;DHT22;35047;37.588;-122.048;2022-08-02T09:27:15;25.20;66.70
49222;DHT22;35047;37.588;-122.048;2022-08-02T09:29:50;25.30;66.50
49222;DHT22;35047;37.588;-122.048;2022-08-02T09:32:18;25.40;66.10
49222;DHT22;35047;37.588;-122.048;2022-08-02T09:37:31;25.50;66.20
49222;DHT22;35047;37.588;-122.048;2022-08-02T09:39:58;25.50;65.80
49222;DHT22;35047;37.588;-122.048;2022-08-02T09:42:26;25.50;65.60
49222;DHT22;35047;37.588;-122.048;2022-08-02T09:45:01;25.50;65.90
49222;DHT22;35047;37.588;-122.048;2022-08-02T09:47:29;25.60;66.00
49222;DHT22;35047;37.588;-122.048;2022-08-02T09:49:56;25.60;66.30
49222;DHT22;35047;37.588;-122.048;2022-08-02T09:52:30;25.60;66.20
49222;DHT22;35047;37.588;-122.048;2022-08-02T09:55:06;25.60;66.20
49222;DHT22;35047;37.588;-122.048;2022-08-02T09:57:34;25.50;66.50
49222;DHT22;35047;37.588;-122.048;2022-08-02T10:00:07;25.50;66.50
49222;DHT22;35047;37.588;-122.048;2022-08-02T10:02:38;25.50;66.20
49222;DHT22;35047;37.588;-122.048;2022-08-02T10:05:05;25.50;66.20
49222;DHT22;35047;37.588;-122.048;2022-08-02T10:07:32;25.40;66.40
49222;DHT22;35047;37.588;-122.048;2022-08-02T10:09:59;25.50;66.50
49222;DHT22;35047;37.588;-122.048;2022-08-02T10:12:26;25.50;66.40
49222;DHT22;35047;37.588;-122.048;2022-08-02T10:14:53;25.40;66.50
49222;DHT22;35047;37.588;-122.048;2022-08-02T10:17:20;25.40;66.50
49222;DHT22;35047;37.588;-122.048;2022-08-02T10:19:47;25.40;66.50
49222;DHT22;35047;37.588;-122.048;2022-08-02T10:22:15;25.40;66.50
49222;DHT22;35047;37.588;-122.048;2022-08-02T10:24:42;25.40;66.40
49222;DHT22;35047;37.588;-122.048;2022-08-02T10:27:15;25.40;65.90
49222;DHT22;35047;37.588;-122.048;2022-08-02T10:29:46;25.40;65.90
49222;DHT22;35047;37.588;-122.048;2022-08-02T10:32:21;25.30;66.00
49222;DHT22;35047;37.588;-122.048;2022-08-02T10:35:17;25.20;66.40
49222;DHT22;35047;37.588;-122.048;2022-08-02T10:37:44;25.20;66.80
49222;DHT22;35047;37.588;-122.048;2022-08-02T10:40:11;25.30;66.80
49222;DHT22;35047;37.588;-122.048;2022-08-02T10:42:50;25.20;66.60
49222;DHT22;35047;37.588;-122.048;2022-08-02T10:45:19;25.20;66.50
49222;DHT22;35047;37.588;-122.048;2022-08-02T10:48:09;25.20;66.60
49222;DHT22;35047;37.588;-122.048;2022-08-02T10:53:33;25.20;66.90
49222;DHT22;35047;37.588;-122.048;2022-08-02T10:56:04;25.20;67.60
49222;DHT22;35047;37.588;-122.048;2022-08-02T10:58:32;25.20;66.80
49222;DHT22;35047;37.588;-122.048;2022-08-02T11:01:04;25.20;66.90
49222;DHT22;35047;37.588;-122.048;2022-08-02T11:06:09;25.20;67.10
49222;DHT22;35047;37.588;-122.048;2022-08-02T11:08:38;25.10;66.90
49222;DHT22;35047;37.588;-122.048;2022-08-02T11:14:05;25.10;67.00
49222;DHT22;35047;37.588;-122.048;2022-08-02T11:19:31;24.90;67.60
49222;DHT22;35047;37.588;-122.048;2022-08-02T11:22:09;25.00;67.70
49222;DHT22;35047;37.588;-122.048;2022-08-02T11:24:37;25.00;67.40
49222;DHT22;35047;37.588;-122.048;2022-08-02T11:27:08;25.00;67.40
49222;DHT22;35047;37.588;-122.048;2022-08-02T11:29:43;25.00;67.80
49222;DHT22;35047;37.588;-122.048;2022-08-02T11:32:18;25.00;67.70
49222;DHT22;35047;37.588;-122.048;2022-08-02T11:34:48;24.90;67.30
49222;DHT22;35047;37.588;-122.048;2022-08-02T11:37:50;24.90;67.50
49222;DHT22;35047;37.588;-122.048;2022-08-02T11:40:17;24.90;67.60
49222;DHT22;35047;37.588;-122.048;2022-08-02T11:42:47;24.90;67.60
49222;DHT22;35047;37.588;-122.048;2022-08-02T11:45:24;24.80;67.80
49222;DHT22;35047;37.588;-122.048;2022-08-02T11:47:53;24.80;67.80
49222;DHT22;35047;37.588;-122.048;2022-08-02T11:50:20;24.80;67.90
49222;DHT22;35047;37.588;-122.048;2022-08-02T11:52:51;24.80;67.70
49222;DHT22;35047;37.588;-122.048;2022-08-02T11:55:28;24.60;67.30
49222;DHT22;35047;37.588;-122.048;2022-08-02T11:58:00;24.50;68.40
49222;DHT22;35047;37.588;-122.048;2022-08-02T12:00:28;24.50;68.60
49222;DHT22;35047;37.588;-122.048;2022-08-02T12:02:55;24.50;68.30
49222;DHT22;35047;37.588;-122.048;2022-08-02T12:05:22;24.60;68.10
49222;DHT22;35047;37.588;-122.048;2022-08-02T12:07:50;24.60;67.80
49222;DHT22;35047;37.588;-122.048;2022-08-02T12:10:21;24.60;67.60
49222;DHT22;35047;37.588;-122.048;2022-08-02T12:12:51;24.60;67.60
49222;DHT22;35047;37.588;-122.048;2022-08-02T12:15:39;24.70;67.40
49222;DHT22;35047;37.588;-122.048;2022-08-02T12:18:21;24.60;67.80
49222;DHT22;35047;37.588;-122.048;2022-08-02T12:21:23;24.60;67.10
49222;DHT22;35047;37.588;-122.048;2022-08-02T12:23:51;24.60;66.80
49222;DHT22;35047;37.588;-122.048;2022-08-02T12:26:18;24.60;66.80
49222;DHT22;35047;37.588;-122.048;2022-08-02T12:28:44;24.60;66.80
49222;DHT22;35047;37.588;-122.048;2022-08-02T12:31:11;24.60;66.70
49222;DHT22;35047;37.588;-122.048;2022-08-02T12:33:45;24.60;66.40
49222;DHT22;35047;37.588;-122.048;2022-08-02T12:36:17;24.60;66.10
49222;DHT22;35047;37.588;-122.048;2022-08-02T12:38:55;24.60;66.30
49222;DHT22;35047;37.588;-122.048;2022-08-02T12:41:22;24.60;66.10
49222;DHT22;35047;37.588;-122.048;2022-08-02T12:43:50;24.60;66.00
49222;DHT22;35047;37.588;-122.048;2022-08-02T12:46:20;24.50;66.30
49222;DHT22;35047;37.588;-122.048;2022-08-02T12:48:48;24.50;66.50
49222;DHT22;35047;37.588;-122.048;2022-08-02T12:51:30;24.50;66.40
49222;DHT22;35047;37.588;-122.048;2022-08-02T12:54:18;24.40;66.70
49222;DHT22;35047;37.588;-122.048;2022-08-02T12:56:48;24.40;66.90
49222;DHT22;35047;37.588;-122.048;2022-08-02T12:59:23;24.40;67.00
49222;DHT22;35047;37.588;-122.048;2022-08-02T13:02:05;24.40;66.90
49222;DHT22;35047;37.588;-122.048;2022-08-02T13:04:32;24.40;66.70
49222;DHT22;35047;37.588;-122.048;2022-08-02T13:06:59;24.40;66.70
49222;DHT22;35047;37.588;-122.048;2022-08-02T13:09:26;24.40;66.70
49222;DHT22;35047;37.588;-122.048;2022-08-02T13:11:54;24.40;67.00
49222;DHT22;35047;37.588;-122.048;2022-08-02T13:14:20;24.40;67.10
49222;DHT22;35047;37.588;-122.048;2022-08-02T13:16:47;24.40;67.60
49222;DHT22;35047;37.588;-122.048;2022-08-02T13:19:14;24.30;67.00
49222;DHT22;35047;37.588;-122.048;2022-08-02T13:21:41;24.30;67.00
49222;DHT22;35047;37.588;-122.048;2022-08-02T13:24:08;24.30;67.00
49222;DHT22;35047;37.588;-122.048;2022-08-02T13:26:36;24.30;67.20
49222;DHT22;35047;37.588;-122.048;2022-08-02T13:29:02;24.30;67.40
49222;DHT22;35047;37.588;-122.048;2022-08-02T13:31:29;24.30;67.30
49222;DHT22;35047;37.588;-122.048;2022-08-02T13:33:59;24.30;67.40
49222;DHT22;35047;37.588;-122.048;2022-08-02T13:36:26;24.30;67.90
49222;DHT22;35047;37.588;-122.048;2022-08-02T13:38:53;24.30;68.00
49222;DHT22;35047;37.588;-122.048;2022-08-02T13:41:19;24.30;68.10
49222;DHT22;35047;37.588;-122.048;2022-08-02T13:43:46;24.30;68.20
49222;DHT22;35047;37.588;-122.048;2022-08-02T13:46:13;24.30;68.40
49222;DHT22;35047;37.588;-122.048;2022-08-02T13:48:39;24.30;68.30
49222;DHT22;35047;37.588;-122.048;2022-08-02T13:51:06;24.30;68.40
49222;DHT22;35047;37.588;-122.048;2022-08-02T13:53:39;24.30;68.40
49222;DHT22;35047;37.588;-122.048;2022-08-02T13:56:07;24.40;68.50
49222;DHT22;35047;37.588;-122.048;2022-08-02T13:58:35;24.40;68.50
49222;DHT22;35047;37.588;-122.048;2022-08-02T14:01:01;24.40;68.60
49222;DHT22;35047;37.588;-122.048;2022-08-02T14:03:28;24.50;68.80
49222;DHT22;35047;37.588;-122.048;2022-08-02T14:05:55;24.50;68.90
49222;DHT22;35047;37.588;-122.048;2022-08-02T14:08:22;24.50;68.90
49222;DHT22;35047;37.588;-122.048;2022-08-02T14:10:50;24.50;69.10
49222;DHT22;35047;37.588;-122.048;2022-08-02T14:13:17;24.60;69.10
49222;DHT22;35047;37.588;-122.048;2022-08-02T14:15:45;24.60;68.80
49222;DHT22;35047;37.588;-122.048;2022-08-02T14:18:12;24.70;68.70
49222;DHT22;35047;37.588;-122.048;2022-08-02T14:20:42;24.70;68.70
49222;DHT22;35047;37.588;-122.048;2022-08-02T14:23:09;24.80;68.60
49222;DHT22;35047;37.588;-122.048;2022-08-02T14:25:36;24.80;68.50
49222;DHT22;35047;37.588;-122.048;2022-08-02T14:28:04;24.90;68.50
49222;DHT22;35047;37.588;-122.048;2022-08-02T14:30:30;25.00;68.60
49222;DHT22;35047;37.588;-122.048;2022-08-02T14:32:58;25.00;68.60
49222;DHT22;35047;37.588;-122.048;2022-08-02T14:35:24;25.10;68.40
49222;DHT22;35047;37.588;-122.048;2022-08-02T14:37:51;25.20;68.00
49222;DHT22;35047;37.588;-122.048;2022-08-02T14:40:19;25.30;68.00
49222;DHT22;35047;37.588;-122.048;2022-08-02T14:42:45;25.40;67.50
49222;DHT22;35047;37.588;-122.048;2022-08-02T14:45:13;25.40;66.00
49222;DHT22;35047;37.588;-122.048;2022-08-02T14:47:40;25.50;65.50
49222;DHT22;35047;37.588;-122.048;2022-08-02T14:50:07;25.50;65.60
49222;DHT22;35047;37.588;-122.048;2022-08-02T14:52:34;25.60;65.90
49222;DHT22;35047;37.588;-122.048;2022-08-02T14:55:00;25.40;66.10
49222;DHT22;35047;37.588;-122.048;2022-08-02T14:57:29;25.20;66.30
49222;DHT22;35047;37.588;-122.048;2022-08-02T14:59:56;24.90;67.10
49222;DHT22;35047;37.588;-122.048;2022-08-02T15:02:26;25.00;67.70
49222;DHT22;35047;37.588;-122.048;2022-08-02T15:04:52;25.10;67.40
49222;DHT22;35047;37.588;-122.048;2022-08-02T15:07:19;25.30;66.40
49222;DHT22;35047;37.588;-122.048;2022-08-02T15:09:45;25.40;65.90
49222;DHT22;35047;37.588;-122.048;2022-08-02T15:12:12;25.60;65.50
49222;DHT22;35047;37.588;-122.048;2022-08-02T15:14:39;25.40;65.70
49222;DHT22;35047;37.588;-122.048;2022-08-02T15:17:06;25.40;65.70
49222;DHT22;35047;37.588;-122.048;2022-08-02T15:19:33;25.60;65.40
49222;DHT22;35047;37.588;-122.048;2022-08-02T15:22:00;25.90;65.60
49222;DHT22;35047;37.588;-122.048;2022-08-02T15:24:26;26.10;63.90
49222;DHT22;35047;37.588;-122.048;2022-08-02T15:26:54;26.10;65.20
49222;DHT22;35047;37.588;-122.048;2022-08-02T15:29:21;26.20;64.40
49222;DHT22;35047;37.588;-122.048;2022-08-02T15:31:48;26.40;64.20
49222;DHT22;35047;37.588;-122.048;2022-08-02T15:34:15;26.50;63.70
49222;DHT22;35047;37.588;-122.048;2022-08-02T15:36:41;26.60;63.00
49222;DHT22;35047;37.588;-122.048;2022-08-02T15:39:08;26.70;62.60